sensor_id;sensor_type;location;lat;lon;timestamp;P1;durP1;ratioP1;P2;durP2;ratioP2
47713;SDS011;33475;46.614;13.888;2024-01-30T00:00:01;15.45;;;7.65;;
47713;SDS011;33475;46.614;13.888;2024-01-30T00:02:28;19.52;;;8.60;;
47713;SDS011;33475;46.614;13.888;2024-01-30T00:04:54;21.70;;;8.63;;
47713;SDS011;33475;46.614;13.888;2024-01-30T00:07:20;12.73;;;8.23;;
47713;SDS011;33475;46.614;13.888;2024-01-30T00:09:47;16.10;;;6.93;;
47713;SDS011;33475;46.614;13.888;2024-01-30T00:12:16;8.05;;;6.18;;
47713;SDS011;33475;46.614;13.888;2024-01-30T00:14:42;13.30;;;7.28;;
47713;SDS011;33475;46.614;13.888;2024-01-30T00:17:09;13.63;;;6.82;;
47713;SDS011;33475;46.614;13.888;2024-01-30T00:19:35;11.00;;;6.43;;
47713;SDS011;33475;46.614;13.888;2024-01-30T00:22:02;13.43;;;7.15;;
47713;SDS011;33475;46.614;13.888;2024-01-30T00:24:28;13.20;;;7.15;;
47713;SDS011;33475;46.614;13.888;2024-01-30T00:26:54;24.85;;;11.88;;
47713;SDS011;33475;46.614;13.888;2024-01-30T00:29:20;19.42;;;8.20;;
47713;SDS011;33475;46.614;13.888;2024-01-30T00:31:48;11.75;;;6.75;;
47713;SDS011;33475;46.614;13.888;2024-01-30T00:34:14;16.27;;;6.38;;
47713;SDS011;33475;46.614;13.888;2024-01-30T00:36:40;15.07;;;6.50;;
47713;SDS011;33475;46.614;13.888;2024-01-30T00:39:06;16.67;;;7.03;;
47713;SDS011;33475;46.614;13.888;2024-01-30T00:41:34;9.27;;;5.65;;
47713;SDS011;33475;46.614;13.888;2024-01-30T00:44:00;9.90;;;6.32;;
47713;SDS011;33475;46.614;13.888;2024-01-30T00:46:26;10.52;;;5.97;;
47713;SDS011;33475;46.614;13.888;2024-01-30T00:48:52;11.45;;;6.88;;
47713;SDS011;33475;46.614;13.888;2024-01-30T00:51:19;11.82;;;6.00;;
47713;SDS011;33475;46.614;13.888;2024-01-30T00:53:45;13.63;;;6.32;;
47713;SDS011;33475;46.614;13.888;2024-01-30T00:56:11;8.90;;;5.93;;
47713;SDS011;33475;46.614;13.888;2024-01-30T00:58:38;10.10;;;5.95;;
47713;SDS011;33475;46.614;13.888;2024-01-30T01:01:04;11.65;;;5.53;;
47713;SDS011;33475;46.614;13.888;2024-01-30T01:03:32;12.80;;;5.63;;
47713;SDS011;33475;46.614;13.888;2024-01-30T01:05:59;8.50;;;5.40;;
47713;SDS011;33475;46.614;13.888;2024-01-30T01:08:25;13.55;;;6.57;;
47713;SDS011;33475;46.614;13.888;2024-01-30T01:10:52;9.85;;;5.68;;
47713;SDS011;33475;46.614;13.888;2024-01-30T01:13:19;10.65;;;5.53;;
47713;SDS011;33475;46.614;13.888;2024-01-30T01:15:45;17.58;;;7.53;;
47713;SDS011;33475;46.614;13.888;2024-01-30T01:18:11;11.07;;;6.70;;
47713;SDS011;33475;46.614;13.888;2024-01-30T01:20:37;18.00;;;6.95;;
47713;SDS011;33475;46.614;13.888;2024-01-30T01:23:03;13.10;;;7.10;;
47713;SDS011;33475;46.614;13.888;2024-01-30T01:25:29;16.23;;;6.32;;
47713;SDS011;33475;46.614;13.888;2024-01-30T01:27:56;12.82;;;6.07;;
47713;SDS011;33475;46.614;13.888;2024-01-30T01:30:22;13.48;;;6.82;;
47713;SDS011;33475;46.614;13.888;2024-01-30T01:32:48;12.43;;;6.30;;
47713;SDS011;33475;46.614;13.888;2024-01-30T01:35:22;8.73;;;5.50;;
47713;SDS011;33475;46.614;13.888;2024-01-30T01:37:52;15.23;;;6.10;;
47713;SDS011;33475;46.614;13.888;2024-01-30T01:40:23;11.35;;;6.40;;
47713;SDS011;33475;46.614;13.888;2024-01-30T01:42:50;12.88;;;6.60;;
47713;SDS011;33475;46.614;13.888;2024-01-30T01:45:17;12.55;;;5.68;;
47713;SDS011;33475;46.614;13.888;2024-01-30T01:47:44;14.15;;;6.78;;
47713;SDS011;33475;46.614;13.888;2024-01-30T01:50:12;14.98;;;6.40;;
47713;SDS011;33475;46.614;13.888;2024-01-30T01:52:40;12.20;;;7.07;;
47713;SDS011;33475;46.614;13.888;2024-01-30T01:55:07;9.57;;;6.30;;
47713;SDS011;33475;46.614;13.888;2024-01-30T01:57:33;15.25;;;7.07;;
47713;SDS011;33475;46.614;13.888;2024-01-30T02:00:01;9.85;;;6.50;;
47713;SDS011;33475;46.614;13.888;2024-01-30T02:02:29;14.27;;;6.97;;
47713;SDS011;33475;46.614;13.888;2024-01-30T02:04:59;11.45;;;5.82;;
47713;SDS011;33475;46.614;13.888;2024-01-30T02:07:25;20.38;;;6.72;;
47713;SDS011;33475;46.614;13.888;2024-01-30T02:09:52;19.40;;;6.82;;
47713;SDS011;33475;46.614;13.888;2024-01-30T02:12:18;12.00;;;6.88;;
47713;SDS011;33475;46.614;13.888;2024-01-30T02:14:45;11.85;;;6.95;;
47713;SDS011;33475;46.614;13.888;2024-01-30T02:17:12;16.50;;;7.45;;
47713;SDS011;33475;46.614;13.888;2024-01-30T02:19:38;10.50;;;6.05;;
47713;SDS011;33475;46.614;13.888;2024-01-30T02:22:04;12.93;;;6.47;;
47713;SDS011;33475;46.614;13.888;2024-01-30T02:24:31;10.35;;;6.32;;
47713;SDS011;33475;46.614;13.888;2024-01-30T02:26:57;10.68;;;6.15;;
47713;SDS011;33475;46.614;13.888;2024-01-30T02:29:23;9.30;;;6.35;;
47713;SDS011;33475;46.614;13.888;2024-01-30T02:31:49;12.15;;;6.38;;
47713;SDS011;33475;46.614;13.888;2024-01-30T02:34:15;10.68;;;5.47;;
47713;SDS011;33475;46.614;13.888;2024-01-30T02:36:42;12.82;;;6.30;;
47713;SDS011;33475;46.614;13.888;2024-01-30T02:39:09;9.20;;;5.82;;
47713;SDS011;33475;46.614;13.888;2024-01-30T02:41:35;10.48;;;6.25;;
47713;SDS011;33475;46.614;13.888;2024-01-30T02:44:02;10.05;;;6.28;;
47713;SDS011;33475;46.614;13.888;2024-01-30T02:46:29;9.75;;;6.18;;
47713;SDS011;33475;46.614;13.888;2024-01-30T02:48:55;12.77;;;6.03;;
47713;SDS011;33475;46.614;13.888;2024-01-30T02:51:21;11.57;;;6.57;;
47713;SDS011;33475;46.614;13.888;2024-01-30T02:53:47;12.38;;;5.97;;
47713;SDS011;33475;46.614;13.888;2024-01-30T02:56:13;12.95;;;5.88;;
47713;SDS011;33475;46.614;13.888;2024-01-30T02:58:40;10.60;;;5.60;;
47713;SDS011;33475;46.614;13.888;2024-01-30T03:01:06;9.35;;;5.70;;
47713;SDS011;33475;46.614;13.888;2024-01-30T03:03:33;11.93;;;6.70;;
47713;SDS011;33475;46.614;13.888;2024-01-30T03:06:01;8.73;;;5.95;;
47713;SDS011;33475;46.614;13.888;2024-01-30T03:08:27;8.50;;;5.88;;
47713;SDS011;33475;46.614;13.888;2024-01-30T03:10:53;11.18;;;5.07;;
47713;SDS011;33475;46.614;13.888;2024-01-30T03:13:21;8.70;;;5.82;;
47713;SDS011;33475;46.614;13.888;2024-01-30T03:15:50;12.23;;;5.70;;
47713;SDS011;33475;46.614;13.888;2024-01-30T03:18:16;11.40;;;5.65;;
47713;SDS011;33475;46.614;13.888;2024-01-30T03:20:43;10.13;;;5.57;;
47713;SDS011;33475;46.614;13.888;2024-01-30T03:23:09;10.50;;;5.88;;
47713;SDS011;33475;46.614;13.888;2024-01-30T03:25:35;11.50;;;6.40;;
47713;SDS011;33475;46.614;13.888;2024-01-30T03:28:02;8.68;;;6.10;;
47713;SDS011;33475;46.614;13.888;2024-01-30T03:30:28;8.43;;;5.53;;
47713;SDS011;33475;46.614;13.888;2024-01-30T03:32:54;10.40;;;6.35;;
47713;SDS011;33475;46.614;13.888;2024-01-30T03:35:20;16.70;;;6.68;;
47713;SDS011;33475;46.614;13.888;2024-01-30T03:37:46;9.13;;;5.75;;
47713;SDS011;33475;46.614;13.888;2024-01-30T03:40:13;12.15;;;5.63;;
47713;SDS011;33475;46.614;13.888;2024-01-30T03:42:39;13.85;;;6.28;;
47713;SDS011;33475;46.614;13.888;2024-01-30T03:45:06;10.68;;;6.22;;
47713;SDS011;33475;46.614;13.888;2024-01-30T03:47:32;7.55;;;5.13;;
47713;SDS011;33475;46.614;13.888;2024-01-30T03:49:58;14.30;;;5.70;;
47713;SDS011;33475;46.614;13.888;2024-01-30T03:52:24;7.93;;;5.63;;
47713;SDS011;33475;46.614;13.888;2024-01-30T03:54:50;13.20;;;5.97;;
47713;SDS011;33475;46.614;13.888;2024-01-30T03:57:17;8.80;;;5.63;;
47713;SDS011;33475;46.614;13.888;2024-01-30T03:59:43;9.40;;;6.20;;
47713;SDS011;33475;46.614;13.888;2024-01-30T04:02:12;13.38;;;6.35;;
47713;SDS011;33475;46.614;13.888;2024-01-30T04:04:38;10.35;;;5.30;;
47713;SDS011;33475;46.614;13.888;2024-01-30T04:07:04;11.70;;;5.28;;
47713;SDS011;33475;46.614;13.888;2024-01-30T04:09:30;13.45;;;6.55;;
47713;SDS011;33475;46.614;13.888;2024-01-30T04:11:57;17.05;;;6.22;;
47713;SDS011;33475;46.614;13.888;2024-01-30T04:14:23;16.17;;;6.57;;
47713;SDS011;33475;46.614;13.888;2024-01-30T04:16:50;15.73;;;6.78;;
47713;SDS011;33475;46.614;13.888;2024-01-30T04:19:16;9.40;;;5.38;;
47713;SDS011;33475;46.614;13.888;2024-01-30T04:21:42;11.88;;;6.80;;
47713;SDS011;33475;46.614;13.888;2024-01-30T04:24:08;11.73;;;5.65;;
47713;SDS011;33475;46.614;13.888;2024-01-30T04:26:34;12.43;;;6.53;;
47713;SDS011;33475;46.614;13.888;2024-01-30T04:29:01;9.82;;;6.68;;
47713;SDS011;33475;46.614;13.888;2024-01-30T04:31:27;13.85;;;5.70;;
47713;SDS011;33475;46.614;13.888;2024-01-30T04:33:54;10.02;;;5.53;;
47713;SDS011;33475;46.614;13.888;2024-01-30T04:36:20;14.48;;;6.28;;
47713;SDS011;33475;46.614;13.888;2024-01-30T04:38:46;8.18;;;5.72;;
47713;SDS011;33475;46.614;13.888;2024-01-30T04:41:12;11.20;;;5.22;;
47713;SDS011;33475;46.614;13.888;2024-01-30T04:43:38;8.93;;;5.10;;
47713;SDS011;33475;46.614;13.888;2024-01-30T04:46:04;15.30;;;6.38;;
47713;SDS011;33475;46.614;13.888;2024-01-30T04:48:31;9.13;;;5.55;;
47713;SDS011;33475;46.614;13.888;2024-01-30T04:50:57;9.40;;;6.40;;
47713;SDS011;33475;46.614;13.888;2024-01-30T04:53:26;11.80;;;6.10;;
47713;SDS011;33475;46.614;13.888;2024-01-30T04:55:52;9.07;;;6.03;;
47713;SDS011;33475;46.614;13.888;2024-01-30T04:58:18;15.75;;;5.45;;
47713;SDS011;33475;46.614;13.888;2024-01-30T05:00:44;8.73;;;5.60;;
47713;SDS011;33475;46.614;13.888;2024-01-30T05:03:13;19.75;;;5.70;;
47713;SDS011;33475;46.614;13.888;2024-01-30T05:05:40;8.45;;;6.13;;
47713;SDS011;33475;46.614;13.888;2024-01-30T05:08:06;12.50;;;5.50;;
47713;SDS011;33475;46.614;13.888;2024-01-30T05:10:32;6.55;;;5.20;;
47713;SDS011;33475;46.614;13.888;2024-01-30T05:12:58;9.18;;;4.75;;
47713;SDS011;33475;46.614;13.888;2024-01-30T05:15:24;6.88;;;5.18;;
47713;SDS011;33475;46.614;13.888;2024-01-30T05:17:51;9.50;;;4.53;;
47713;SDS011;33475;46.614;13.888;2024-01-30T05:20:17;7.60;;;4.82;;
47713;SDS011;33475;46.614;13.888;2024-01-30T05:22:43;10.43;;;4.40;;
47713;SDS011;33475;46.614;13.888;2024-01-30T05:25:11;8.10;;;4.53;;
47713;SDS011;33475;46.614;13.888;2024-01-30T05:27:37;10.55;;;6.35;;
47713;SDS011;33475;46.614;13.888;2024-01-30T05:30:04;7.57;;;4.85;;
47713;SDS011;33475;46.614;13.888;2024-01-30T05:32:31;9.02;;;4.80;;
47713;SDS011;33475;46.614;13.888;2024-01-30T05:34:57;11.10;;;4.60;;
47713;SDS011;33475;46.614;13.888;2024-01-30T05:37:23;11.77;;;5.60;;
47713;SDS011;33475;46.614;13.888;2024-01-30T05:39:49;32.85;;;13.40;;
47713;SDS011;33475;46.614;13.888;2024-01-30T05:42:16;57.65;;;19.48;;
47713;SDS011;33475;46.614;13.888;2024-01-30T05:44:42;67.78;;;23.20;;
47713;SDS011;33475;46.614;13.888;2024-01-30T05:47:08;38.83;;;13.30;;
47713;SDS011;33475;46.614;13.888;2024-01-30T05:49:34;22.15;;;10.57;;
47713;SDS011;33475;46.614;13.888;2024-01-30T05:52:02;31.33;;;11.85;;
47713;SDS011;33475;46.614;13.888;2024-01-30T05:54:29;28.95;;;12.40;;
47713;SDS011;33475;46.614;13.888;2024-01-30T05:56:55;18.90;;;9.80;;
47713;SDS011;33475;46.614;13.888;2024-01-30T05:59:21;33.85;;;13.40;;
47713;SDS011;33475;46.614;13.888;2024-01-30T06:01:47;55.13;;;19.90;;
47713;SDS011;33475;46.614;13.888;2024-01-30T06:04:14;45.75;;;16.33;;
47713;SDS011;33475;46.614;13.888;2024-01-30T06:06:41;29.95;;;12.15;;
47713;SDS011;33475;46.614;13.888;2024-01-30T06:09:07;21.77;;;8.43;;
47713;SDS011;33475;46.614;13.888;2024-01-30T06:11:38;18.23;;;7.07;;
47713;SDS011;33475;46.614;13.888;2024-01-30T06:14:04;10.40;;;5.65;;
47713;SDS011;33475;46.614;13.888;2024-01-30T06:16:30;12.85;;;6.72;;
47713;SDS011;33475;46.614;13.888;2024-01-30T06:18:56;17.10;;;8.77;;
47713;SDS011;33475;46.614;13.888;2024-01-30T06:21:23;23.48;;;10.73;;
47713;SDS011;33475;46.614;13.888;2024-01-30T06:23:49;15.68;;;9.00;;
47713;SDS011;33475;46.614;13.888;2024-01-30T06:26:15;15.63;;;8.45;;
47713;SDS011;33475;46.614;13.888;2024-01-30T06:28:42;12.60;;;7.28;;
47713;SDS011;33475;46.614;13.888;2024-01-30T06:31:09;15.00;;;8.10;;
47713;SDS011;33475;46.614;13.888;2024-01-30T06:33:35;13.57;;;6.63;;
47713;SDS011;33475;46.614;13.888;2024-01-30T06:36:01;14.40;;;6.43;;
47713;SDS011;33475;46.614;13.888;2024-01-30T06:38:28;18.13;;;6.78;;
47713;SDS011;33475;46.614;13.888;2024-01-30T06:40:54;14.18;;;6.25;;
47713;SDS011;33475;46.614;13.888;2024-01-30T06:43:20;20.77;;;8.40;;
47713;SDS011;33475;46.614;13.888;2024-01-30T06:45:47;42.97;;;13.10;;
47713;SDS011;33475;46.614;13.888;2024-01-30T06:48:14;42.83;;;14.52;;
47713;SDS011;33475;46.614;13.888;2024-01-30T06:50:40;56.90;;;18.98;;
47713;SDS011;33475;46.614;13.888;2024-01-30T06:53:06;33.65;;;14.18;;
47713;SDS011;33475;46.614;13.888;2024-01-30T06:55:32;46.08;;;16.83;;
47713;SDS011;33475;46.614;13.888;2024-01-30T06:57:58;66.85;;;23.92;;
47713;SDS011;33475;46.614;13.888;2024-01-30T07:00:24;30.05;;;12.30;;
47713;SDS011;33475;46.614;13.888;2024-01-30T07:02:50;15.60;;;8.70;;
47713;SDS011;33475;46.614;13.888;2024-01-30T07:05:17;20.73;;;8.77;;
47713;SDS011;33475;46.614;13.888;2024-01-30T07:07:43;25.23;;;10.73;;
47713;SDS011;33475;46.614;13.888;2024-01-30T07:10:09;32.40;;;10.95;;
47713;SDS011;33475;46.614;13.888;2024-01-30T07:12:35;19.95;;;10.60;;
47713;SDS011;33475;46.614;13.888;2024-01-30T07:15:01;22.33;;;9.68;;
47713;SDS011;33475;46.614;13.888;2024-01-30T07:17:28;30.85;;;11.52;;
47713;SDS011;33475;46.614;13.888;2024-01-30T07:19:54;27.63;;;12.88;;
47713;SDS011;33475;46.614;13.888;2024-01-30T07:22:21;31.08;;;13.07;;
47713;SDS011;33475;46.614;13.888;2024-01-30T07:24:47;28.13;;;12.48;;
47713;SDS011;33475;46.614;13.888;2024-01-30T07:27:14;32.08;;;14.13;;
47713;SDS011;33475;46.614;13.888;2024-01-30T07:29:42;35.15;;;15.20;;
47713;SDS011;33475;46.614;13.888;2024-01-30T07:32:09;33.17;;;14.02;;
47713;SDS011;33475;46.614;13.888;2024-01-30T07:34:35;25.90;;;11.10;;
47713;SDS011;33475;46.614;13.888;2024-01-30T07:37:02;24.95;;;11.27;;
47713;SDS011;33475;46.614;13.888;2024-01-30T07:39:28;26.92;;;11.82;;
47713;SDS011;33475;46.614;13.888;2024-01-30T07:41:54;29.52;;;14.45;;
47713;SDS011;33475;46.614;13.888;2024-01-30T07:44:20;36.60;;;15.07;;
47713;SDS011;33475;46.614;13.888;2024-01-30T07:46:46;42.80;;;18.60;;
47713;SDS011;33475;46.614;13.888;2024-01-30T07:49:12;61.08;;;23.50;;
47713;SDS011;33475;46.614;13.888;2024-01-30T07:51:39;35.65;;;16.40;;
47713;SDS011;33475;46.614;13.888;2024-01-30T07:54:11;29.98;;;12.60;;
47713;SDS011;33475;46.614;13.888;2024-01-30T07:56:38;30.55;;;12.10;;
47713;SDS011;33475;46.614;13.888;2024-01-30T07:59:04;22.80;;;9.77;;
47713;SDS011;33475;46.614;13.888;2024-01-30T08:01:30;17.95;;;9.50;;
47713;SDS011;33475;46.614;13.888;2024-01-30T08:03:57;20.48;;;9.35;;
47713;SDS011;33475;46.614;13.888;2024-01-30T08:06:23;18.45;;;9.30;;
47713;SDS011;33475;46.614;13.888;2024-01-30T08:08:49;16.02;;;8.45;;
47713;SDS011;33475;46.614;13.888;2024-01-30T08:11:19;12.82;;;8.38;;
47713;SDS011;33475;46.614;13.888;2024-01-30T08:13:45;19.50;;;9.10;;
47713;SDS011;33475;46.614;13.888;2024-01-30T08:16:11;15.60;;;7.97;;
47713;SDS011;33475;46.614;13.888;2024-01-30T08:18:38;10.68;;;7.22;;
47713;SDS011;33475;46.614;13.888;2024-01-30T08:21:04;12.70;;;6.88;;
47713;SDS011;33475;46.614;13.888;2024-01-30T08:23:30;15.55;;;7.85;;
47713;SDS011;33475;46.614;13.888;2024-01-30T08:25:57;21.00;;;10.77;;
47713;SDS011;33475;46.614;13.888;2024-01-30T08:28:23;19.38;;;15.98;;
47713;SDS011;33475;46.614;13.888;2024-01-30T08:30:49;21.05;;;8.05;;
47713;SDS011;33475;46.614;13.888;2024-01-30T08:33:19;9.80;;;7.30;;
47713;SDS011;33475;46.614;13.888;2024-01-30T08:35:45;10.02;;;7.47;;
47713;SDS011;33475;46.614;13.888;2024-01-30T08:38:11;7.80;;;5.55;;
47713;SDS011;33475;46.614;13.888;2024-01-30T08:40:37;9.68;;;6.20;;
47713;SDS011;33475;46.614;13.888;2024-01-30T08:43:04;12.07;;;6.75;;
47713;SDS011;33475;46.614;13.888;2024-01-30T08:45:30;9.82;;;6.05;;
47713;SDS011;33475;46.614;13.888;2024-01-30T08:47:56;10.55;;;6.28;;
47713;SDS011;33475;46.614;13.888;2024-01-30T08:50:22;13.48;;;6.63;;
47713;SDS011;33475;46.614;13.888;2024-01-30T08:52:48;13.20;;;6.00;;
47713;SDS011;33475;46.614;13.888;2024-01-30T08:55:15;9.02;;;6.38;;
47713;SDS011;33475;46.614;13.888;2024-01-30T08:57:41;16.30;;;6.53;;
47713;SDS011;33475;46.614;13.888;2024-01-30T09:00:07;8.70;;;5.43;;
47713;SDS011;33475;46.614;13.888;2024-01-30T09:02:35;10.20;;;6.07;;
47713;SDS011;33475;46.614;13.888;2024-01-30T09:05:01;10.55;;;5.20;;
47713;SDS011;33475;46.614;13.888;2024-01-30T09:07:27;7.63;;;5.47;;
47713;SDS011;33475;46.614;13.888;2024-01-30T09:09:54;8.02;;;5.50;;
47713;SDS011;33475;46.614;13.888;2024-01-30T09:12:20;11.23;;;4.90;;
47713;SDS011;33475;46.614;13.888;2024-01-30T09:14:46;12.77;;;5.25;;
47713;SDS011;33475;46.614;13.888;2024-01-30T09:17:12;10.43;;;5.25;;
47713;SDS011;33475;46.614;13.888;2024-01-30T09:19:38;11.63;;;5.90;;
47713;SDS011;33475;46.614;13.888;2024-01-30T09:22:04;12.23;;;5.55;;
47713;SDS011;33475;46.614;13.888;2024-01-30T09:24:31;10.18;;;5.40;;
47713;SDS011;33475;46.614;13.888;2024-01-30T09:26:57;7.22;;;5.30;;
47713;SDS011;33475;46.614;13.888;2024-01-30T09:29:23;11.82;;;5.57;;
47713;SDS011;33475;46.614;13.888;2024-01-30T09:31:49;8.30;;;5.50;;
47713;SDS011;33475;46.614;13.888;2024-01-30T09:34:16;7.55;;;5.18;;
47713;SDS011;33475;46.614;13.888;2024-01-30T09:36:42;8.25;;;4.88;;
47713;SDS011;33475;46.614;13.888;2024-01-30T09:39:08;8.90;;;5.07;;
47713;SDS011;33475;46.614;13.888;2024-01-30T09:41:36;8.90;;;4.78;;
47713;SDS011;33475;46.614;13.888;2024-01-30T09:44:07;8.25;;;4.57;;
47713;SDS011;33475;46.614;13.888;2024-01-30T09:46:35;10.07;;;5.32;;
47713;SDS011;33475;46.614;13.888;2024-01-30T09:49:01;9.73;;;5.57;;
47713;SDS011;33475;46.614;13.888;2024-01-30T09:51:28;6.13;;;4.78;;
47713;SDS011;33475;46.614;13.888;2024-01-30T09:53:55;10.32;;;4.97;;
47713;SDS011;33475;46.614;13.888;2024-01-30T09:56:22;6.43;;;4.85;;
47713;SDS011;33475;46.614;13.888;2024-01-30T09:58:48;9.88;;;5.13;;
47713;SDS011;33475;46.614;13.888;2024-01-30T10:01:15;7.45;;;4.85;;
47713;SDS011;33475;46.614;13.888;2024-01-30T10:03:44;11.18;;;5.00;;
47713;SDS011;33475;46.614;13.888;2024-01-30T10:06:10;5.32;;;4.20;;
47713;SDS011;33475;46.614;13.888;2024-01-30T10:08:37;5.35;;;4.60;;
47713;SDS011;33475;46.614;13.888;2024-01-30T10:11:03;13.35;;;3.90;;
47713;SDS011;33475;46.614;13.888;2024-01-30T10:13:30;11.45;;;4.75;;
47713;SDS011;33475;46.614;13.888;2024-01-30T10:15:56;10.55;;;4.15;;
47713;SDS011;33475;46.614;13.888;2024-01-30T10:18:23;11.27;;;3.90;;
47713;SDS011;33475;46.614;13.888;2024-01-30T10:20:49;6.10;;;3.90;;
47713;SDS011;33475;46.614;13.888;2024-01-30T10:23:16;6.22;;;3.50;;
47713;SDS011;33475;46.614;13.888;2024-01-30T10:25:42;9.00;;;4.03;;
47713;SDS011;33475;46.614;13.888;2024-01-30T10:28:09;9.65;;;4.22;;
47713;SDS011;33475;46.614;13.888;2024-01-30T10:30:35;6.60;;;3.53;;
47713;SDS011;33475;46.614;13.888;2024-01-30T10:33:01;4.70;;;3.53;;
47713;SDS011;33475;46.614;13.888;2024-01-30T10:35:27;5.20;;;3.38;;
47713;SDS011;33475;46.614;13.888;2024-01-30T10:37:54;8.48;;;4.32;;
47713;SDS011;33475;46.614;13.888;2024-01-30T10:40:24;7.57;;;3.75;;
47713;SDS011;33475;46.614;13.888;2024-01-30T10:42:53;13.40;;;4.88;;
47713;SDS011;33475;46.614;13.888;2024-01-30T10:45:21;8.95;;;4.53;;
47713;SDS011;33475;46.614;13.888;2024-01-30T10:47:49;6.78;;;3.70;;
47713;SDS011;33475;46.614;13.888;2024-01-30T10:50:15;6.07;;;3.40;;
47713;SDS011;33475;46.614;13.888;2024-01-30T10:52:41;14.73;;;13.13;;
47713;SDS011;33475;46.614;13.888;2024-01-30T10:55:08;4.07;;;3.58;;
47713;SDS011;33475;46.614;13.888;2024-01-30T10:57:35;13.07;;;10.75;;
47713;SDS011;33475;46.614;13.888;2024-01-30T11:00:08;6.32;;;4.40;;
47713;SDS011;33475;46.614;13.888;2024-01-30T11:02:36;8.13;;;4.33;;
47713;SDS011;33475;46.614;13.888;2024-01-30T11:05:04;13.50;;;7.78;;
47713;SDS011;33475;46.614;13.888;2024-01-30T11:07:30;5.60;;;4.82;;
47713;SDS011;33475;46.614;13.888;2024-01-30T11:12:26;15.48;;;5.18;;
47713;SDS011;33475;46.614;13.888;2024-01-30T11:15:02;11.38;;;8.07;;
47713;SDS011;33475;46.614;13.888;2024-01-30T11:20:21;9.95;;;4.20;;
47713;SDS011;33475;46.614;13.888;2024-01-30T11:22:50;10.70;;;3.83;;
47713;SDS011;33475;46.614;13.888;2024-01-30T11:25:19;12.20;;;7.28;;
47713;SDS011;33475;46.614;13.888;2024-01-30T11:27:46;12.05;;;4.20;;
47713;SDS011;33475;46.614;13.888;2024-01-30T11:30:25;11.60;;;4.45;;
47713;SDS011;33475;46.614;13.888;2024-01-30T11:33:07;11.20;;;4.00;;
47713;SDS011;33475;46.614;13.888;2024-01-30T11:35:40;9.55;;;4.00;;
47713;SDS011;33475;46.614;13.888;2024-01-30T11:38:10;6.50;;;4.25;;
47713;SDS011;33475;46.614;13.888;2024-01-30T11:40:37;16.05;;;3.95;;
47713;SDS011;33475;46.614;13.888;2024-01-30T11:43:04;17.13;;;4.15;;
47713;SDS011;33475;46.614;13.888;2024-01-30T11:45:31;10.07;;;4.43;;
47713;SDS011;33475;46.614;13.888;2024-01-30T11:47:58;11.52;;;4.10;;
47713;SDS011;33475;46.614;13.888;2024-01-30T11:50:30;8.77;;;3.78;;
47713;SDS011;33475;46.614;13.888;2024-01-30T11:52:57;8.23;;;3.63;;
47713;SDS011;33475;46.614;13.888;2024-01-30T11:55:24;5.50;;;3.70;;
47713;SDS011;33475;46.614;13.888;2024-01-30T11:57:50;10.43;;;3.28;;
47713;SDS011;33475;46.614;13.888;2024-01-30T12:00:19;6.65;;;3.22;;
47713;SDS011;33475;46.614;13.888;2024-01-30T12:02:49;5.75;;;2.60;;
47713;SDS011;33475;46.614;13.888;2024-01-30T12:05:16;12.40;;;3.10;;
47713;SDS011;33475;46.614;13.888;2024-01-30T12:07:45;6.07;;;3.28;;
47713;SDS011;33475;46.614;13.888;2024-01-30T12:10:14;2.85;;;2.28;;
47713;SDS011;33475;46.614;13.888;2024-01-30T12:12:42;9.27;;;2.20;;
47713;SDS011;33475;46.614;13.888;2024-01-30T12:15:09;6.32;;;2.72;;
47713;SDS011;33475;46.614;13.888;2024-01-30T12:17:36;4.97;;;2.40;;
47713;SDS011;33475;46.614;13.888;2024-01-30T12:20:02;7.50;;;2.50;;
47713;SDS011;33475;46.614;13.888;2024-01-30T12:22:29;8.25;;;3.72;;
47713;SDS011;33475;46.614;13.888;2024-01-30T12:24:56;5.03;;;2.88;;
47713;SDS011;33475;46.614;13.888;2024-01-30T12:27:23;6.70;;;2.97;;
47713;SDS011;33475;46.614;13.888;2024-01-30T12:29:55;6.57;;;2.63;;
47713;SDS011;33475;46.614;13.888;2024-01-30T12:32:22;7.40;;;3.80;;
47713;SDS011;33475;46.614;13.888;2024-01-30T12:34:49;4.03;;;2.92;;
47713;SDS011;33475;46.614;13.888;2024-01-30T12:37:15;5.65;;;3.00;;
47713;SDS011;33475;46.614;13.888;2024-01-30T12:39:48;8.63;;;4.88;;
47713;SDS011;33475;46.614;13.888;2024-01-30T12:42:14;5.05;;;3.80;;
47713;SDS011;33475;46.614;13.888;2024-01-30T12:44:41;4.50;;;3.95;;
47713;SDS011;33475;46.614;13.888;2024-01-30T12:47:10;4.50;;;3.70;;
47713;SDS011;33475;46.614;13.888;2024-01-30T12:49:36;3.83;;;3.53;;
47713;SDS011;33475;46.614;13.888;2024-01-30T12:52:02;4.63;;;2.72;;
47713;SDS011;33475;46.614;13.888;2024-01-30T12:54:29;5.53;;;4.85;;
47713;SDS011;33475;46.614;13.888;2024-01-30T12:56:55;2.47;;;1.63;;
47713;SDS011;33475;46.614;13.888;2024-01-30T12:59:21;4.28;;;1.40;;
47713;SDS011;33475;46.614;13.888;2024-01-30T13:01:48;4.57;;;1.63;;
47713;SDS011;33475;46.614;13.888;2024-01-30T13:04:14;5.07;;;1.63;;
47713;SDS011;33475;46.614;13.888;2024-01-30T13:06:41;6.28;;;2.05;;
47713;SDS011;33475;46.614;13.888;2024-01-30T13:09:08;10.52;;;2.47;;
47713;SDS011;33475;46.614;13.888;2024-01-30T13:11:34;5.13;;;2.60;;
47713;SDS011;33475;46.614;13.888;2024-01-30T13:14:01;3.45;;;2.00;;
47713;SDS011;33475;46.614;13.888;2024-01-30T13:16:28;4.53;;;3.00;;
47713;SDS011;33475;46.614;13.888;2024-01-30T13:18:54;5.63;;;2.70;;
47713;SDS011;33475;46.614;13.888;2024-01-30T13:21:21;3.95;;;2.10;;
47713;SDS011;33475;46.614;13.888;2024-01-30T13:23:47;3.35;;;2.50;;
47713;SDS011;33475;46.614;13.888;2024-01-30T13:26:13;9.82;;;1.95;;
47713;SDS011;33475;46.614;13.888;2024-01-30T13:28:39;8.75;;;2.28;;
47713;SDS011;33475;46.614;13.888;2024-01-30T13:31:05;4.25;;;2.40;;
47713;SDS011;33475;46.614;13.888;2024-01-30T13:33:32;3.05;;;2.35;;
47713;SDS011;33475;46.614;13.888;2024-01-30T13:35:58;2.70;;;2.00;;
47713;SDS011;33475;46.614;13.888;2024-01-30T13:38:24;2.67;;;1.95;;
47713;SDS011;33475;46.614;13.888;2024-01-30T13:40:50;5.22;;;2.88;;
47713;SDS011;33475;46.614;13.888;2024-01-30T13:43:17;4.50;;;3.25;;
47713;SDS011;33475;46.614;13.888;2024-01-30T13:45:43;4.72;;;2.80;;
47713;SDS011;33475;46.614;13.888;2024-01-30T13:48:11;4.20;;;2.67;;
47713;SDS011;33475;46.614;13.888;2024-01-30T13:50:37;5.88;;;2.53;;
47713;SDS011;33475;46.614;13.888;2024-01-30T13:53:03;11.50;;;2.17;;
47713;SDS011;33475;46.614;13.888;2024-01-30T13:55:29;5.57;;;4.53;;
47713;SDS011;33475;46.614;13.888;2024-01-30T13:57:55;6.75;;;3.03;;
47713;SDS011;33475;46.614;13.888;2024-01-30T14:00:22;5.78;;;2.30;;
47713;SDS011;33475;46.614;13.888;2024-01-30T14:02:50;7.10;;;1.90;;
47713;SDS011;33475;46.614;13.888;2024-01-30T14:05:16;2.97;;;1.73;;
47713;SDS011;33475;46.614;13.888;2024-01-30T14:07:44;3.80;;;2.30;;
47713;SDS011;33475;46.614;13.888;2024-01-30T14:10:10;5.18;;;1.85;;
47713;SDS011;33475;46.614;13.888;2024-01-30T14:12:36;3.15;;;1.67;;
47713;SDS011;33475;46.614;13.888;2024-01-30T14:15:02;2.65;;;2.10;;
47713;SDS011;33475;46.614;13.888;2024-01-30T14:17:28;3.08;;;1.92;;
47713;SDS011;33475;46.614;13.888;2024-01-30T14:19:55;6.50;;;2.22;;
47713;SDS011;33475;46.614;13.888;2024-01-30T14:22:21;3.70;;;2.20;;
47713;SDS011;33475;46.614;13.888;2024-01-30T14:24:47;4.13;;;1.92;;
47713;SDS011;33475;46.614;13.888;2024-01-30T14:27:14;4.25;;;2.35;;